Etusivu
METAR-TAF:

METAR-TAF

Lentoasemat :

Diori Hamanin kansainvälinen lentoasema

Niamey, Niger

Leveyspiiri: 13-29N, Pituuspiiri: 002-10E, korkeus merenpinnasta: 223 m

Tämänhetkinen sää

Tämä raportti tehtiin 37 minuuttia sitten, kello 23.00 UTC
Tuuli 5 kn lännestä/lounaasta
Lämpötila 37°C
Kosteus 22%
Ilmanpaine 1008 hPa
Näkyvyys: 8000 m

METAR: DRRN 232300Z 25005KT 8000 NSC 37/12 Q1008 NOSIG

Aika: 00:37 (23:37 UTC)

Sääennuste

Tämä raportti tehtiin 6 tuntia ja 37 minuuttia sitten, kello 17.00 UTC
Ennuste voimassa 23. päivästä klo 18 UTC - 24. päivään klo 24 UTC
Tuuli 8 kn lounaasta
Näkyvyys: 8000 m

TAF: DRRN 231700Z 2318/2424 22008KT 8000 NSC

Säähavainnot ja -ennusteet yli 4000 lentoasemalta (METAR- ja TAF-raportit).

Käytössä olevat sääasemat on merkitty karttaan keltaisilla ja punaisilla pisteillä.

Aseta hiiri pisteen päälle nähdäksesi sääaseman nimen.

Klikkaa sitten nähdäksesi säähavainnot ja -ennusteet.

Kartan vaihtaminen: klikkaa mustalla rastilla varustettuja vihreitä pisteitä, niin voit zoomata sisään; viivalla varustettua vihreää pistettä, niin voit zoomata ulos tai vihreitä nuolia, niin pääset viereisille kartoille.


METAR-TAF: